Fairmont, West Virginia
Current Conditions -  °F | °C
As of 4:53 AM on Wednesday 26 Nov 2014 (Local Time) from KCKB Reporting Station
Overcast Overcast  
Wind Chill: 27°   Ceiling: 11000
Heat Index: 35°   Visibility: 10mi
Dew Point: 28°   Wind: 10mph
Humidity: 76%   Direction: 10°N
Pressure: 30.03"   Gusts: NA
Location:  39.48°N, 80.15°W
Report Text: KCKB 260953Z AUTO 01009KT 10SM OVC110 02/M02 A3003 RMK AO2 PRESFR SLP171 T00171022 TSNO
Loading
Personal Weather Stations






























Interactive Weather Map New forecast layout! Learn more

10-Day Weather Forecast

Advertisements
Track Severe Weather on mobile